ADDS METAR Data INFO
IDs: Format: Raw Decoded Include TAF

Data at: 1249 UTC 19 Oct 2017

KDYA 191235Z AUTO 00000KT 10SM 07/07 A3025 RMK AO2 T00720068
KDYA 191215Z AUTO 00000KT 10SM 07/06 A3025 RMK AO2 T00670062
KDYA 191155Z AUTO 00000KT 10SM 07/07 A3025 RMK AO2 T00710066 10085 20068
KDYA 191135Z AUTO 00000KT 10SM 07/07 A3024 RMK AO2 T00700065
KDYA 191115Z AUTO 00000KT 10SM 07/06 A3023 RMK AO2 T00700064
KDYA 191055Z AUTO 00000KT 10SM 07/07 A3023 RMK AO2 T00700065
KDYA 191035Z AUTO 00000KT 10SM 07/06 A3022 RMK AO2 T00700064
KDYA 191015Z AUTO 00000KT 10SM 07/07 A3022 RMK AO2 T00700065
KDYA 190955Z AUTO 00000KT 10SM 07/07 A3021 RMK AO2 T00730067
KDYA 190935Z AUTO 00000KT 10SM 07/07 A3021 RMK AO2 T00700065
KDYA 190915Z AUTO 00000KT 10SM 08/07 A3020 RMK AO2 T00760071
KDYA 190855Z AUTO 00000KT 10SM 07/07 A3020 RMK AO2 T00730066
KDYA 190835Z AUTO 00000KT 10SM 07/07 A3020 RMK AO2 T00730066
KDYA 190815Z AUTO 00000KT 10SM 08/07 A3021 RMK AO2 T00750067
KDYA 190755Z AUTO 00000KT 10SM 08/07 A3021 RMK AO2 T00780072
KDYA 190735Z AUTO 00000KT 10SM 08/07 A3021 RMK AO2 T00750067
KDYA 190715Z AUTO 00000KT 10SM 08/07 A3022 RMK AO2 T00800071
KDYA 190655Z AUTO 00000KT 7SM 08/07 A3021 RMK AO2 T00780070
KDYA 190635Z AUTO 00000KT 7SM 08/07 A3021 RMK AO2 T00810073
KDYA 190615Z AUTO 00000KT 7SM 08/07 A3021 RMK AO2 T00820074
KDYA 190555Z AUTO 00000KT 7SM 09/08 A3022 RMK AO2 T00850076 10142 20082 402440066
KDYA 190535Z AUTO 00000KT 7SM 09/08 A3022 RMK AO2 T00850076
KDYA 190515Z AUTO 00000KT 7SM 09/08 A3022 RMK AO2 T00850076
KDYA 190455Z AUTO 00000KT 10SM 09/08 A3023 RMK AO2 T00860077
KDYA 190435Z AUTO 00000KT 10SM 09/08 A3023 RMK AO2 T00890080
KDYA 190415Z AUTO 00000KT 10SM 09/08 A3024 RMK AO2 T00910081
KDYA 190355Z AUTO 00000KT 10SM 09/08 A3024 RMK AO2 T00930083
KDYA 190335Z AUTO 00000KT 10SM 09/08 A3024 RMK AO2 T00900080
KDYA 190315Z AUTO 00000KT 10SM 10/09 A3024 RMK AO2 T00950085
KDYA 190255Z AUTO 00000KT 10SM 10/09 A3024 RMK AO2 T01000088
KDYA 190235Z AUTO 00000KT 10SM 10/09 A3024 RMK AO2 T01000089
KDYA 190215Z AUTO 00000KT 10SM 11/09 A3024 RMK AO2 T01050092
KDYA 190155Z AUTO 00000KT 10SM 11/10 A3024 RMK AO2 T01080095
KDYA 190135Z AUTO 00000KT 10SM 11/10 A3023 RMK AO2 T01120099
KDYA 190115Z AUTO 00000KT 10SM 12/10 A3023 RMK AO2 T01190103
KDYA 190055Z AUTO 00000KT 10SM 12/11 A3022 RMK AO2 T01220106
KDYA 190035Z AUTO 00000KT 10SM 13/11 A3022 RMK AO2 T01260107
KDYA 190015Z AUTO 00000KT 10SM 13/11 A3021 RMK AO2 T01340108
KDYA 182355Z AUTO 00000KT 10SM 14/11 A3020 RMK AO2 T01440111 10244 20144
KDYA 182335Z AUTO 00000KT 10SM 15/11 A3019 RMK AO2 T01510112
KDYA 182315Z AUTO 00000KT 10SM 17/12 A3019 RMK AO2 T01680120
KDYA 182255Z AUTO 00000KT 10SM 20/12 A3019 RMK AO2 T01960119
KDYA 182235Z AUTO 00000KT 10SM 22/10 A3019 RMK AO2 T02180104
KDYA 182215Z AUTO 00000KT 10SM 23/07 A3019 RMK AO2 T02320069
KDYA 182155Z AUTO 05004KT 10SM 24/06 A3019 RMK AO2 T02350055
KDYA 182135Z AUTO 03003KT 10SM 24/04 A3019 RMK AO2 T02370044
KDYA 182115Z AUTO 02003KT 10SM 24/05 A3019 RMK AO2 T02410047
KDYA 182055Z AUTO 05003KT 10SM 24/04 A3019 RMK AO2 T02370037
KDYA 182035Z AUTO 10003KT 10SM 24/05 A3020 RMK AO2 T02430051
KDYA 182015Z AUTO 05006KT 10SM 24/04 A3020 RMK AO2 T02390043
KDYA 181955Z AUTO 10006KT 10SM 23/04 A3020 RMK AO2 T02330039
KDYA 181935Z AUTO 00000KT 10SM 23/04 A3021 RMK AO2 T02320039
KDYA 181915Z AUTO 08005KT 10SM 23/05 A3022 RMK AO2 T02270045
KDYA 181855Z AUTO 04005KT 10SM 23/04 A3022 RMK AO2 T02280044
KDYA 181835Z AUTO 09004KT 10SM 22/04 A3024 RMK AO2 T02230044
KDYA 181815Z AUTO 36004KT 10SM 21/05 A3025 RMK AO2 T02110046
KDYA 181755Z AUTO 10004KT 7SM 22/04 A3027 RMK AO2 T02180042 10218 20066
KDYA 181735Z AUTO 03004KT 10SM 21/05 A3027 RMK AO2 T02090049
KDYA 181715Z AUTO 00000KT 7SM 21/05 A3028 RMK AO2 T02090054
KDYA 181655Z AUTO 08004KT 10SM 20/05 A3028 RMK AO2 T02030049
KDYA 181635Z AUTO 12009KT 10SM 20/05 A3029 RMK AO2 T01950051
KDYA 181615Z AUTO 13006KT 10SM 19/06 A3029 RMK AO2 T01920058
KDYA 181555Z AUTO 12008KT 7SM 19/06 A3030 RMK AO2 T01880058
KDYA 181535Z AUTO 12010KT 10SM 18/06 A3030 RMK AO2 T01820060
KDYA 181515Z AUTO 12008G14KT 10SM 18/07 A3030 RMK AO2 T01750068
KDYA 181455Z AUTO 10005KT 10SM 17/08 A3030 RMK AO2 T01700078
KDYA 181435Z AUTO 11005KT 10SM 16/08 A3030 RMK AO2 T01560083
KDYA 181415Z AUTO 10005KT 10SM 14/09 A3029 RMK AO2 T01440086
KDYA 181355Z AUTO 00000KT 10SM 13/09 A3029 RMK AO2 T01330094
KDYA 181335Z AUTO 09004KT 10SM 12/09 A3029 RMK AO2 T01190091
KDYA 181315Z AUTO 08003KT 10SM 10/09 A3028 RMK AO2 T01040091
KDYA 181255Z AUTO 00000KT 10SM 09/09 A3028 RMK AO2 T00870086
KDYA 181235Z AUTO 00000KT 10SM 07/07 A3028 RMK AO2 T00720068
KDYA 181215Z AUTO 00000KT 10SM 07/07 A3027 RMK AO2 T00700065
KDYA 181155Z AUTO 02003KT 10SM 07/07 A3027 RMK AO2 T00730067 10091 20070
KDYA 181135Z AUTO 00000KT 10SM 07/07 A3027 RMK AO2 T00740068
KDYA 181115Z AUTO 00000KT 10SM 08/07 A3026 RMK AO2 T00760070
KDYA 181055Z AUTO 00000KT 10SM 08/07 A3026 RMK AO2 T00780072
KDYA 181035Z AUTO 00000KT 10SM 08/07 A3025 RMK AO2 T00800073
KDYA 181015Z AUTO 03003KT 10SM 08/08 A3025 RMK AO2 T00830080
KDYA 180955Z AUTO 00000KT 10SM 08/08 A3024 RMK AO2 T00800075
KDYA 180935Z AUTO 00000KT 10SM 08/07 A3024 RMK AO2 T00790071
KDYA 180915Z AUTO 02003KT 10SM 09/09 A3023 RMK AO2 T00910089
KDYA 180855Z AUTO 00000KT 10SM 08/07 A3023 RMK AO2 T00780074
KDYA 180835Z AUTO 00000KT 10SM 08/07 A3023 RMK AO2 T00780072
KDYA 180815Z AUTO 00000KT 10SM 08/08 A3023 RMK AO2 T00810075
KDYA 180755Z AUTO 00000KT 10SM 08/07 A3023 RMK AO2 T00800072
KDYA 180735Z AUTO 00000KT 10SM 08/07 A3023 RMK AO2 T00790071
KDYA 180715Z AUTO 00000KT 10SM 08/07 A3023 RMK AO2 T00800073
KDYA 180655Z AUTO 00000KT 10SM 08/07 A3023 RMK AO2 T00810073
KDYA 180635Z AUTO 00000KT 10SM 08/07 A3023 RMK AO2 T00820074
KDYA 180615Z AUTO 00000KT 10SM 09/08 A3023 RMK AO2 T00860079
KDYA 180555Z AUTO 00000KT 10SM 09/08 A3023 RMK AO2 T00860077 10146 20086 402290086
KDYA 180535Z AUTO 00000KT 10SM 09/08 A3023 RMK AO2 T00880080
KDYA 180515Z AUTO 00000KT 10SM 09/08 A3023 RMK AO2 T00910082
KDYA 180455Z AUTO 00000KT 10SM 09/08 A3024 RMK AO2 T00920084
KDYA 180435Z AUTO 00000KT 10SM 09/08 A3023 RMK AO2 T00920083
KDYA 180415Z AUTO 00000KT 10SM 10/09 A3024 RMK AO2 T00950085
KDYA 180355Z AUTO 00000KT 10SM 10/09 A3024 RMK AO2 T00970087
KDYA 180335Z AUTO 00000KT 7SM 10/09 A3024 RMK AO2 T00990089
KDYA 180315Z AUTO 00000KT 7SM 10/09 A3024 RMK AO2 T01030092
KDYA 180255Z AUTO 00000KT 10SM 11/09 A3023 RMK AO2 T01050093
KDYA 180235Z AUTO 00000KT 10SM 11/10 A3023 RMK AO2 T01100096
KDYA 180215Z AUTO 00000KT 10SM 11/10 A3022 RMK AO2 T01130101
KDYA 180155Z AUTO 00000KT 10SM 12/10 A3022 RMK AO2 T01160104
KDYA 180135Z AUTO 00000KT 7SM 12/10 A3022 RMK AO2 T01170104
KDYA 180115Z AUTO 00000KT 7SM 12/11 A3021 RMK AO2 T01220107
KDYA 180055Z AUTO 00000KT 10SM 13/11 A3021 RMK AO2 T01250108